createdAt,value
2019-04-05T00:00:01.470Z,0.00
2019-04-05T00:01:01.456Z,0.00
2019-04-05T00:02:01.449Z,0.00
2019-04-05T00:03:01.429Z,0.00
2019-04-05T00:04:01.423Z,0.00
2019-04-05T00:05:01.479Z,0.00
2019-04-05T00:06:01.427Z,0.00
2019-04-05T00:07:01.392Z,0.00
2019-04-05T00:08:01.377Z,0.00
2019-04-05T00:09:01.361Z,0.00
2019-04-05T00:10:01.351Z,0.00
2019-04-05T00:11:01.340Z,0.00
2019-04-05T00:12:01.341Z,0.00
2019-04-05T00:13:01.319Z,0.00
2019-04-05T00:14:01.313Z,0.00
2019-04-05T00:15:14.268Z,0.00
2019-04-05T00:16:02.300Z,0.00
2019-04-05T00:17:01.275Z,0.00
2019-04-05T00:18:01.273Z,0.00
2019-04-05T00:19:01.257Z,0.00
2019-04-05T00:20:01.242Z,0.00
2019-04-05T00:21:01.230Z,0.00
2019-04-05T00:22:01.217Z,0.00
2019-04-05T00:23:01.213Z,0.00
2019-04-05T00:24:01.203Z,0.00
2019-04-05T00:25:01.189Z,0.00
2019-04-05T00:26:01.174Z,0.00
2019-04-05T00:27:01.181Z,0.00
2019-04-05T00:28:01.149Z,0.00
2019-04-05T00:29:01.150Z,0.00
2019-04-05T00:30:01.126Z,0.00
2019-04-05T00:31:01.116Z,0.00
2019-04-05T00:32:01.108Z,0.00
2019-04-05T00:33:01.098Z,0.00
2019-04-05T00:34:01.132Z,0.00
2019-04-05T00:35:01.068Z,0.00
2019-04-05T00:36:01.079Z,0.00
2019-04-05T00:37:01.050Z,0.00
2019-04-05T00:38:01.049Z,0.00
2019-04-05T00:39:01.033Z,0.00
2019-04-05T00:40:01.024Z,0.00
2019-04-05T00:41:01.010Z,0.00
2019-04-05T00:42:00.993Z,0.00
2019-04-05T00:43:01.009Z,0.00
2019-04-05T00:44:00.975Z,0.00
2019-04-05T00:45:00.961Z,0.00
2019-04-05T00:46:00.953Z,0.00
2019-04-05T00:47:00.941Z,0.00
2019-04-05T00:48:00.925Z,0.00
2019-04-05T00:49:00.919Z,0.00
2019-04-05T00:50:00.909Z,0.00
2019-04-05T00:51:00.899Z,0.00
2019-04-05T00:52:00.882Z,0.00
2019-04-05T00:53:00.879Z,0.00
2019-04-05T00:54:00.864Z,0.00
2019-04-05T00:55:00.854Z,0.00
2019-04-05T00:56:00.839Z,0.00
2019-04-05T00:57:00.829Z,0.00
2019-04-05T00:58:00.819Z,0.00
2019-04-05T00:59:00.822Z,0.00
2019-04-05T01:00:00.796Z,0.00
2019-04-05T01:01:00.782Z,0.00
2019-04-05T01:02:00.773Z,0.00
2019-04-05T01:03:00.759Z,0.00
2019-04-05T01:04:00.745Z,0.00
2019-04-05T01:05:00.741Z,0.00
2019-04-05T01:06:00.724Z,0.00
2019-04-05T01:07:00.719Z,0.00
2019-04-05T01:08:00.715Z,0.00
2019-04-05T01:09:00.694Z,0.00
2019-04-05T01:10:00.684Z,0.00
2019-04-05T01:11:00.672Z,0.00
2019-04-05T01:12:00.660Z,0.00
2019-04-05T01:13:00.641Z,0.00
2019-04-05T01:14:00.632Z,0.00
2019-04-05T01:15:00.626Z,0.00
2019-04-05T01:16:00.645Z,0.00
2019-04-05T01:17:00.606Z,0.00
2019-04-05T01:18:00.589Z,0.00
2019-04-05T01:19:00.578Z,0.00
2019-04-05T01:20:00.564Z,0.00
2019-04-05T01:21:00.554Z,0.00
2019-04-05T01:22:00.542Z,0.00
2019-04-05T01:23:00.542Z,0.00
2019-04-05T01:24:00.518Z,0.00
2019-04-05T01:25:00.511Z,0.00
2019-04-05T01:26:00.500Z,0.00
2019-04-05T01:27:00.488Z,0.00
2019-04-05T01:28:00.475Z,0.00
2019-04-05T01:29:00.463Z,0.00
2019-04-05T01:30:00.463Z,0.00
2019-04-05T01:31:00.442Z,0.00
2019-04-05T01:32:00.431Z,0.00
2019-04-05T01:33:00.418Z,0.00
2019-04-05T01:34:00.413Z,0.00
2019-04-05T01:35:00.399Z,0.00
2019-04-05T01:36:00.391Z,0.00
2019-04-05T01:37:00.380Z,0.00
2019-04-05T01:38:00.377Z,0.00
2019-04-05T01:39:00.351Z,0.00
2019-04-05T01:40:00.341Z,0.00
2019-04-05T01:41:00.327Z,0.00
2019-04-05T01:42:00.319Z,0.00
2019-04-05T01:43:00.323Z,0.00
2019-04-05T01:44:00.324Z,0.00
2019-04-05T01:45:00.293Z,0.00
2019-04-05T01:46:00.273Z,0.00
2019-04-05T01:47:00.263Z,0.00
2019-04-05T01:48:00.245Z,0.00
2019-04-05T01:49:00.245Z,0.00
2019-04-05T01:50:00.230Z,0.00
2019-04-05T01:51:00.211Z,0.00
2019-04-05T01:52:00.198Z,0.00
2019-04-05T01:53:00.187Z,0.00
2019-04-05T01:54:00.181Z,0.00
2019-04-05T01:55:00.179Z,0.00
2019-04-05T01:56:00.156Z,0.00
2019-04-05T01:57:00.165Z,0.00
2019-04-05T01:58:00.155Z,0.00
2019-04-05T01:59:00.126Z,0.00
2019-04-05T02:00:00.111Z,0.00
2019-04-05T02:01:00.120Z,0.00
2019-04-05T02:02:00.088Z,0.00
2019-04-05T02:03:00.084Z,0.00
2019-04-05T02:04:00.069Z,0.00
2019-04-05T02:05:00.061Z,0.00
2019-04-05T02:06:00.050Z,0.00
2019-04-05T02:07:00.034Z,0.00
2019-04-05T02:08:00.026Z,0.00
2019-04-05T02:09:00.020Z,0.00
2019-04-05T02:10:00.008Z,0.00
2019-04-05T02:10:59.992Z,0.00
2019-04-05T02:12:00.009Z,0.00
2019-04-05T02:12:59.962Z,0.00
2019-04-05T02:13:59.955Z,0.00
2019-04-05T02:14:59.947Z,0.00
2019-04-05T02:16:06.190Z,0.00
2019-04-05T02:17:00.921Z,0.00
2019-04-05T02:17:59.940Z,0.00
2019-04-05T02:18:59.902Z,0.00
2019-04-05T02:19:59.886Z,0.00
2019-04-05T02:20:59.885Z,0.00
2019-04-05T02:21:59.859Z,0.00
2019-04-05T02:22:59.871Z,0.00
2019-04-05T02:23:59.844Z,0.00
2019-04-05T02:24:59.831Z,0.00
2019-04-05T02:25:59.823Z,0.00
2019-04-05T02:26:59.812Z,0.00
2019-04-05T02:27:59.803Z,0.00
2019-04-05T02:28:59.781Z,0.00
2019-04-05T02:29:59.827Z,0.00
2019-04-05T02:30:59.767Z,0.00
2019-04-05T02:31:59.757Z,0.00
2019-04-05T02:32:59.742Z,0.00
2019-04-05T02:33:59.726Z,0.00
2019-04-05T02:34:59.717Z,0.00
2019-04-05T02:35:59.710Z,0.00
2019-04-05T02:36:59.700Z,0.00
2019-04-05T02:37:59.686Z,0.00
2019-04-05T02:38:59.681Z,0.00
2019-04-05T02:39:59.663Z,0.00
2019-04-05T02:40:59.648Z,0.00
2019-04-05T02:41:59.645Z,0.00
2019-04-05T02:42:59.641Z,0.00
2019-04-05T02:43:59.625Z,0.00
2019-04-05T02:44:59.623Z,0.00
2019-04-05T02:45:59.596Z,0.00
2019-04-05T02:46:59.582Z,0.00
2019-04-05T02:47:59.581Z,0.00
2019-04-05T02:48:59.562Z,0.00
2019-04-05T02:49:59.562Z,0.00
2019-04-05T02:50:59.534Z,0.00
2019-04-05T02:51:59.531Z,0.00
2019-04-05T02:52:59.518Z,0.00
2019-04-05T02:53:59.501Z,0.00
2019-04-05T02:54:59.492Z,0.00
2019-04-05T02:56:02.767Z,0.00
2019-04-05T02:56:59.475Z,0.00
2019-04-05T02:57:59.462Z,0.00
2019-04-05T02:58:59.449Z,0.00
2019-04-05T02:59:59.467Z,0.00
2019-04-05T03:00:59.430Z,0.00
2019-04-05T03:01:59.413Z,0.00
2019-04-05T03:02:59.405Z,0.00
2019-04-05T03:03:59.397Z,0.00
2019-04-05T03:04:59.382Z,0.00
2019-04-05T03:05:59.372Z,0.00
2019-04-05T03:06:59.360Z,0.00
2019-04-05T03:07:59.350Z,0.00
2019-04-05T03:08:59.335Z,0.00
2019-04-05T03:09:59.339Z,0.00
2019-04-05T03:10:59.329Z,0.00
2019-04-05T03:11:59.306Z,0.00
2019-04-05T03:12:59.300Z,0.00
2019-04-05T03:13:59.282Z,0.00
2019-04-05T03:14:59.273Z,0.00
2019-04-05T03:15:59.264Z,0.00
2019-04-05T03:16:59.266Z,0.00
2019-04-05T03:17:59.236Z,0.00
2019-04-05T03:18:59.263Z,0.00
2019-04-05T03:19:59.216Z,0.00
2019-04-05T03:20:59.206Z,0.00
2019-04-05T03:21:59.188Z,0.00
2019-04-05T03:22:59.177Z,0.00
2019-04-05T03:24:06.326Z,0.00
2019-04-05T03:25:40.844Z,0.00
2019-04-05T03:26:40.829Z,0.00
2019-04-05T03:27:40.807Z,0.00
2019-04-05T03:28:40.821Z,0.00
2019-04-05T03:29:40.785Z,0.00
2019-04-05T03:30:40.779Z,0.00
2019-04-05T03:31:40.809Z,0.00
2019-04-05T03:32:40.780Z,0.00
2019-04-05T03:33:40.740Z,0.00
2019-04-05T03:34:40.773Z,0.00
2019-04-05T03:35:40.715Z,0.00
2019-04-05T03:36:40.736Z,0.00
2019-04-05T03:37:40.720Z,0.00
2019-04-05T03:38:40.703Z,0.00
2019-04-05T03:39:40.681Z,0.00
2019-04-05T03:40:40.688Z,0.00
2019-04-05T03:41:40.670Z,0.00
2019-04-05T03:42:40.663Z,0.00
2019-04-05T03:43:40.643Z,0.00
2019-04-05T03:44:40.647Z,0.00
2019-04-05T03:45:40.604Z,0.00
2019-04-05T03:46:55.510Z,0.00
2019-04-05T03:47:41.590Z,0.00
2019-04-05T03:48:40.583Z,0.00
2019-04-05T03:49:40.607Z,0.00
2019-04-05T03:50:40.551Z,0.00
2019-04-05T03:51:40.545Z,0.00
2019-04-05T03:52:40.529Z,0.00
2019-04-05T03:53:40.531Z,0.00
2019-04-05T03:54:40.509Z,0.00
2019-04-05T03:55:40.522Z,0.00
2019-04-05T03:56:40.489Z,0.00
2019-04-05T03:57:40.476Z,0.00
2019-04-05T03:58:40.466Z,0.00
2019-04-05T03:59:40.456Z,0.00
2019-04-05T04:00:40.442Z,0.00
2019-04-05T04:01:40.491Z,0.00
2019-04-05T04:02:40.423Z,0.00
2019-04-05T04:03:40.411Z,0.00
2019-04-05T04:04:40.410Z,0.00
2019-04-05T04:05:40.384Z,0.00
2019-04-05T04:06:40.384Z,0.00
2019-04-05T04:07:40.399Z,0.00
2019-04-05T04:08:40.357Z,4.00
2019-04-05T04:09:40.351Z,4.00
2019-04-05T04:10:40.337Z,0.00
2019-04-05T04:11:40.318Z,4.00
2019-04-05T04:12:40.329Z,4.00
2019-04-05T04:13:40.306Z,4.00
2019-04-05T04:14:40.292Z,4.00
2019-04-05T04:15:40.281Z,4.00
2019-04-05T04:16:40.268Z,8.00
2019-04-05T04:17:40.262Z,8.00
2019-04-05T04:18:40.245Z,8.00
2019-04-05T04:19:40.233Z,8.00
2019-04-05T04:20:40.226Z,12.00
2019-04-05T04:21:40.215Z,12.00
2019-04-05T04:22:40.202Z,12.00
2019-04-05T04:23:40.195Z,16.00
2019-04-05T04:24:40.186Z,16.00
2019-04-05T04:25:40.172Z,16.00
2019-04-05T04:26:40.167Z,24.00
2019-04-05T04:27:40.150Z,24.00
2019-04-05T04:28:40.152Z,28.00
2019-04-05T04:29:40.120Z,32.00
2019-04-05T04:30:40.113Z,32.00
2019-04-05T04:31:40.105Z,40.00
2019-04-05T04:32:40.090Z,44.00
2019-04-05T04:33:40.115Z,48.00
2019-04-05T04:34:40.067Z,52.00
2019-04-05T04:35:40.058Z,60.00
2019-04-05T04:36:40.050Z,64.00
2019-04-05T04:37:40.044Z,68.00
2019-04-05T04:38:40.028Z,76.00
2019-04-05T04:39:40.023Z,80.00
2019-04-05T04:40:40.010Z,88.00
2019-04-05T04:41:39.999Z,96.00
2019-04-05T04:42:39.982Z,104.00
2019-04-05T04:43:39.974Z,108.00
2019-04-05T04:44:39.967Z,116.00
2019-04-05T04:45:39.948Z,124.00
2019-04-05T04:46:39.941Z,136.00
2019-04-05T04:47:39.931Z,144.00
2019-04-05T04:48:39.919Z,152.00
2019-04-05T04:49:39.905Z,160.00
2019-04-05T04:50:39.909Z,176.00
2019-04-05T04:51:39.885Z,184.00
2019-04-05T04:52:39.877Z,196.00
2019-04-05T04:53:39.879Z,208.00
2019-04-05T04:54:39.859Z,220.00
2019-04-05T04:55:39.856Z,228.00
2019-04-05T04:56:39.826Z,244.00
2019-04-05T04:57:46.984Z,252.00
2019-04-05T04:59:10.438Z,276.00
2019-04-05T05:00:10.430Z,288.00
2019-04-05T05:01:41.706Z,312.00
2019-04-05T05:02:41.704Z,324.00
2019-04-05T05:03:41.699Z,336.00
2019-04-05T05:04:41.672Z,352.00
2019-04-05T05:05:41.660Z,368.00
2019-04-05T05:06:41.678Z,380.00
2019-04-05T05:07:41.638Z,396.00
2019-04-05T05:08:41.630Z,412.00
2019-04-05T05:09:41.646Z,428.00
2019-04-05T05:10:41.603Z,440.00
2019-04-05T05:11:41.608Z,456.00
2019-04-05T05:12:41.578Z,472.00
2019-04-05T05:13:41.570Z,488.00
2019-04-05T05:14:41.556Z,504.00
2019-04-05T05:15:41.551Z,520.00
2019-04-05T05:16:41.547Z,536.00
2019-04-05T05:17:41.526Z,548.00
2019-04-05T05:18:41.520Z,564.00
2019-04-05T05:19:41.503Z,584.00
2019-04-05T05:20:42.788Z,596.00
2019-04-05T05:21:41.481Z,616.00
2019-04-05T05:22:41.487Z,632.00
2019-04-05T05:23:41.465Z,648.00
2019-04-05T05:24:41.499Z,664.00
2019-04-05T05:25:41.445Z,680.00
2019-04-05T05:26:41.476Z,696.00
2019-04-05T05:27:41.426Z,712.00
2019-04-05T05:28:41.402Z,728.00
2019-04-05T05:29:41.400Z,744.00
2019-04-05T05:30:41.393Z,764.00
2019-04-05T05:31:41.391Z,780.00
2019-04-05T05:32:41.363Z,800.00
2019-04-05T05:33:41.374Z,812.00
2019-04-05T05:34:41.340Z,832.00
2019-04-05T05:35:41.331Z,852.00
2019-04-05T05:36:41.319Z,868.00
2019-04-05T05:37:41.309Z,884.00
2019-04-05T05:38:41.301Z,904.00
2019-04-05T05:39:41.287Z,916.00
2019-04-05T05:40:41.278Z,932.00
2019-04-05T05:41:41.264Z,952.00
2019-04-05T05:42:41.256Z,968.00
2019-04-05T05:43:41.263Z,988.00
2019-04-05T05:44:41.236Z,1008.00
2019-04-05T05:45:41.218Z,1028.00
2019-04-05T05:46:41.210Z,1040.00
2019-04-05T05:47:51.267Z,1056.00
2019-04-05T05:48:42.270Z,1076.00
2019-04-05T05:49:41.182Z,1088.00
2019-04-05T05:50:41.171Z,1104.00
2019-04-05T05:51:41.152Z,1120.00
2019-04-05T05:52:41.148Z,1136.00
2019-04-05T05:53:41.144Z,1156.00
2019-04-05T05:54:41.136Z,1172.00
2019-04-05T05:55:41.131Z,1180.00
2019-04-05T05:56:41.108Z,1200.00
2019-04-05T05:57:41.102Z,1212.00
2019-04-05T05:58:41.090Z,1232.00
2019-04-05T05:59:41.085Z,1252.00
2019-04-05T06:00:41.067Z,1272.00
2019-04-05T06:01:41.061Z,1288.00
2019-04-05T06:02:41.055Z,1304.00
2019-04-05T06:03:41.039Z,1316.00
2019-04-05T06:04:41.030Z,1324.00
2019-04-05T06:05:41.012Z,1340.00
2019-04-05T06:06:41.019Z,1356.00
2019-04-05T06:07:40.988Z,1376.00
2019-04-05T06:08:41.011Z,1396.00
2019-04-05T06:09:40.967Z,1408.00
2019-04-05T06:10:40.946Z,1428.00
2019-04-05T06:11:40.941Z,1448.00
2019-04-05T06:12:40.931Z,1464.00
2019-04-05T06:13:40.957Z,1488.00
2019-04-05T06:14:40.901Z,1500.00
2019-04-05T06:15:40.893Z,1516.00
2019-04-05T06:16:46.544Z,1532.00
2019-04-05T06:17:41.879Z,1548.00
2019-04-05T06:18:40.861Z,1560.00
2019-04-05T06:19:40.841Z,1568.00
2019-04-05T06:20:40.832Z,1584.00
2019-04-05T06:21:40.824Z,1604.00
2019-04-05T06:22:40.819Z,1624.00
2019-04-05T06:23:40.819Z,1640.00
2019-04-05T06:24:40.804Z,1656.00
2019-04-05T06:25:40.782Z,1676.00
2019-04-05T06:26:40.777Z,1692.00
2019-04-05T06:27:40.757Z,1704.00
2019-04-05T06:28:40.873Z,1712.00
2019-04-05T06:29:40.742Z,1728.00
2019-04-05T06:30:47.891Z,1740.00
2019-04-05T06:32:22.398Z,1768.00
2019-04-05T06:33:31.329Z,1784.00
2019-04-05T06:35:05.052Z,1824.00
2019-04-05T06:36:05.011Z,1840.00
2019-04-05T06:37:47.166Z,1856.00
2019-04-05T06:38:47.152Z,1876.00
2019-04-05T06:39:47.155Z,1888.00
2019-04-05T06:40:47.130Z,1908.00
2019-04-05T06:41:47.117Z,1924.00
2019-04-05T06:42:47.106Z,1952.00
2019-04-05T06:43:47.093Z,1968.00
2019-04-05T06:44:47.084Z,1992.00
2019-04-05T06:45:47.128Z,2004.00
2019-04-05T06:46:47.091Z,2016.00
2019-04-05T06:47:47.050Z,2036.00
2019-04-05T06:48:47.044Z,2052.00
2019-04-05T06:49:47.027Z,2056.00
2019-04-05T06:50:47.566Z,2068.00
2019-04-05T06:51:47.007Z,2076.00
2019-04-05T06:52:47.002Z,2084.00
2019-04-05T06:53:46.980Z,2092.00
2019-04-05T06:54:46.976Z,2116.00
2019-04-05T06:55:46.970Z,2136.00
2019-04-05T06:56:46.955Z,2172.00
2019-04-05T06:57:46.971Z,2200.00
2019-04-05T06:58:46.930Z,2228.00
2019-04-05T06:59:46.927Z,2252.00
2019-04-05T07:00:57.005Z,2268.00
2019-04-05T07:01:47.901Z,2280.00
2019-04-05T07:02:46.883Z,2312.00
2019-04-05T07:03:46.888Z,2352.00
2019-04-05T07:04:46.875Z,2384.00
2019-04-05T07:05:46.863Z,2416.00
2019-04-05T07:06:46.847Z,2460.00
2019-04-05T07:07:46.833Z,2504.00
2019-04-05T07:08:53.794Z,2544.00
2019-04-05T07:09:47.814Z,2592.00
2019-04-05T07:10:46.804Z,2644.00
2019-04-05T07:11:46.803Z,2680.00
2019-04-05T07:12:46.797Z,2720.00
2019-04-05T07:13:46.762Z,2740.00
2019-04-05T07:14:46.780Z,2772.00
2019-04-05T07:15:46.742Z,2808.00
2019-04-05T07:16:46.746Z,2832.00
2019-04-05T07:17:46.721Z,2864.00
2019-04-05T07:18:46.709Z,2900.00
2019-04-05T07:19:46.707Z,2944.00
2019-04-05T07:20:46.689Z,2988.00
2019-04-05T07:21:46.682Z,3020.00
2019-04-05T07:22:46.679Z,3076.00
2019-04-05T07:23:46.662Z,3104.00
2019-04-05T07:24:49.421Z,3148.00
2019-04-05T07:25:46.635Z,3212.00
2019-04-05T07:26:46.624Z,3248.00
2019-04-05T07:27:46.609Z,3384.00
2019-04-05T07:28:46.600Z,3380.00
2019-04-05T07:29:46.589Z,3412.00
2019-04-05T07:30:46.586Z,3540.00
2019-04-05T07:31:46.565Z,3568.00
2019-04-05T07:32:46.560Z,3668.00
2019-04-05T07:33:46.550Z,3700.00
2019-04-05T07:34:46.535Z,4032.00
2019-04-05T07:35:46.530Z,4076.00
2019-04-05T07:36:46.514Z,4024.00
2019-04-05T07:37:46.504Z,4084.00
2019-04-05T07:38:46.491Z,4024.00
2019-04-05T07:39:46.478Z,4048.00
2019-04-05T07:40:46.481Z,4092.00
2019-04-05T07:41:46.521Z,4284.00
2019-04-05T07:42:46.454Z,4380.00
2019-04-05T07:43:46.440Z,4596.00
2019-04-05T07:44:46.425Z,4024.00
2019-04-05T07:45:46.411Z,3492.00
2019-04-05T07:46:46.766Z,3152.00
2019-04-05T07:47:46.391Z,2768.00
2019-04-05T07:48:46.390Z,2568.00
2019-04-05T07:49:46.372Z,4084.00
2019-04-05T07:50:46.368Z,4296.00
2019-04-05T07:51:46.344Z,3268.00
2019-04-05T07:52:46.358Z,2988.00
2019-04-05T07:53:46.372Z,3024.00
2019-04-05T07:54:46.344Z,3196.00
2019-04-05T07:55:46.303Z,3072.00
2019-04-05T07:56:46.512Z,2712.00
2019-04-05T07:57:46.281Z,1960.00
2019-04-05T07:58:46.284Z,1684.00
2019-04-05T07:59:46.266Z,1772.00
2019-04-05T08:00:46.246Z,1800.00
2019-04-05T08:01:46.243Z,1972.00
2019-04-05T08:02:46.227Z,1944.00
2019-04-05T08:03:46.215Z,2032.00
2019-04-05T08:04:46.209Z,1872.00
2019-04-05T08:05:46.192Z,1520.00
2019-04-05T08:06:46.189Z,1544.00
2019-04-05T08:07:46.171Z,1616.00
2019-04-05T08:08:46.192Z,1696.00
2019-04-05T08:09:46.151Z,1696.00
2019-04-05T08:10:46.157Z,1760.00
2019-04-05T08:11:46.135Z,1588.00
2019-04-05T08:12:46.113Z,1764.00
2019-04-05T08:13:46.112Z,1768.00
2019-04-05T08:14:46.093Z,1612.00
2019-04-05T08:15:46.087Z,1508.00
2019-04-05T08:16:46.073Z,1580.00
2019-04-05T08:17:46.073Z,1604.00
2019-04-05T08:18:57.048Z,1748.00
2019-04-05T08:19:47.036Z,2004.00
2019-04-05T08:20:46.020Z,1836.00
2019-04-05T08:21:46.018Z,1696.00
2019-04-05T08:22:45.999Z,1572.00
2019-04-05T08:23:45.988Z,1612.00
2019-04-05T08:24:45.982Z,1796.00
2019-04-05T08:25:45.970Z,1724.00
2019-04-05T08:26:45.972Z,1808.00
2019-04-05T08:27:45.944Z,1844.00
2019-04-05T08:28:45.930Z,2140.00
2019-04-05T08:29:45.929Z,2312.00
2019-04-05T08:30:45.925Z,2160.00
2019-04-05T08:31:45.903Z,2072.00
2019-04-05T08:32:45.903Z,2060.00
2019-04-05T08:33:45.876Z,1984.00
2019-04-05T08:34:45.865Z,2164.00
2019-04-05T08:35:45.856Z,2440.00
2019-04-05T08:36:45.842Z,2352.00
2019-04-05T08:37:45.844Z,2200.00
2019-04-05T08:38:45.822Z,2064.00
2019-04-05T08:39:45.808Z,2120.00
2019-04-05T08:40:45.802Z,2136.00
2019-04-05T08:41:45.810Z,2228.00
2019-04-05T08:42:45.780Z,2220.00
2019-04-05T08:43:47.224Z,2212.00
2019-04-05T08:44:45.749Z,2224.00
2019-04-05T08:45:45.745Z,2256.00
2019-04-05T08:46:45.738Z,2412.00
2019-04-05T08:47:45.738Z,2424.00
2019-04-05T08:48:45.717Z,2348.00
2019-04-05T08:49:45.698Z,2244.00
2019-04-05T08:50:45.697Z,2256.00
2019-04-05T08:51:45.675Z,2304.00
2019-04-05T08:52:45.666Z,2268.00
2019-04-05T08:53:45.704Z,2436.00
2019-04-05T08:54:45.650Z,2556.00
2019-04-05T08:55:45.635Z,2396.00
2019-04-05T08:56:45.628Z,2352.00
2019-04-05T08:57:47.961Z,2428.00
2019-04-05T08:58:45.602Z,2472.00
2019-04-05T08:59:45.596Z,2616.00
2019-04-05T09:00:45.584Z,2828.00
2019-04-05T09:01:45.567Z,3304.00
2019-04-05T09:02:45.631Z,3320.00
2019-04-05T09:03:45.547Z,3240.00
2019-04-05T09:04:45.541Z,2976.00
2019-04-05T09:05:45.517Z,2608.00
2019-04-05T09:06:45.508Z,2660.00
2019-04-05T09:07:45.505Z,3052.00
2019-04-05T09:08:45.492Z,2732.00
2019-04-05T09:09:45.480Z,2956.00
2019-04-05T09:10:45.517Z,3312.00
2019-04-05T09:11:45.469Z,2988.00
2019-04-05T09:12:45.442Z,2476.00
2019-04-05T09:13:45.436Z,2580.00
2019-04-05T09:14:45.424Z,2612.00
2019-04-05T09:15:45.415Z,2776.00
2019-04-05T09:16:45.396Z,2592.00
2019-04-05T09:17:45.394Z,2480.00
2019-04-05T09:18:45.378Z,2532.00
2019-04-05T09:19:45.371Z,2472.00
2019-04-05T09:20:45.351Z,2380.00
2019-04-05T09:21:45.372Z,2236.00
2019-04-05T09:22:45.334Z,2120.00
2019-04-05T09:23:45.320Z,1976.00
2019-04-05T09:24:45.308Z,1880.00
2019-04-05T09:25:45.298Z,1936.00
2019-04-05T09:26:45.294Z,1984.00
2019-04-05T09:27:45.283Z,1924.00
2019-04-05T09:28:45.268Z,1872.00
2019-04-05T09:29:45.254Z,1740.00
2019-04-05T09:30:45.249Z,1720.00
2019-04-05T09:31:45.232Z,1728.00
2019-04-05T09:32:45.232Z,1640.00
2019-04-05T09:33:52.359Z,1648.00
2019-04-05T09:35:26.877Z,1728.00
2019-04-05T09:36:33.991Z,1728.00
2019-04-05T09:38:08.514Z,1688.00
2019-04-05T09:39:12.496Z,1700.00
2019-04-05T09:40:09.496Z,1644.00
2019-04-05T09:41:08.472Z,1640.00
2019-04-05T09:42:08.461Z,1536.00
2019-04-05T09:43:08.452Z,1524.00
2019-04-05T09:44:08.443Z,1656.00
2019-04-05T09:45:08.426Z,1656.00
2019-04-05T09:46:08.419Z,1636.00
2019-04-05T09:47:15.589Z,1652.00
2019-04-05T09:48:50.095Z,1576.00
2019-04-05T09:49:50.069Z,1624.00
2019-04-05T09:50:50.069Z,1676.00
2019-04-05T09:51:50.047Z,1660.00
2019-04-05T09:52:50.280Z,1644.00
2019-04-05T09:53:50.113Z,1612.00
2019-04-05T09:54:50.020Z,1612.00
2019-04-05T09:55:50.005Z,1684.00
2019-04-05T09:56:49.998Z,1628.00
2019-04-05T09:57:50.063Z,1624.00
2019-04-05T09:58:49.972Z,1628.00
2019-04-05T09:59:49.982Z,1700.00
2019-04-05T10:00:49.964Z,1676.00
2019-04-05T10:01:49.944Z,1632.00
2019-04-05T10:02:49.939Z,1652.00
2019-04-05T10:03:49.949Z,1648.00
2019-04-05T10:04:49.903Z,1572.00
2019-04-05T10:05:49.921Z,1492.00
2019-04-05T10:06:49.907Z,1428.00
2019-04-05T10:07:55.307Z,1472.00
2019-04-05T10:08:50.857Z,1480.00
2019-04-05T10:09:50.484Z,1452.00
2019-04-05T10:10:49.847Z,1404.00
2019-04-05T10:11:49.847Z,1508.00
2019-04-05T10:12:49.815Z,1564.00
2019-04-05T10:13:49.802Z,1504.00
2019-04-05T10:14:49.821Z,1496.00
2019-04-05T10:15:49.781Z,1500.00
2019-04-05T10:16:49.777Z,1444.00
2019-04-05T10:17:49.771Z,1560.00
2019-04-05T10:18:51.518Z,1724.00
2019-04-05T10:19:50.542Z,1676.00
2019-04-05T10:20:49.736Z,1640.00
2019-04-05T10:21:49.731Z,1632.00
2019-04-05T10:22:49.710Z,1592.00
2019-04-05T10:23:49.692Z,1512.00
2019-04-05T10:24:49.684Z,1544.00
2019-04-05T10:25:49.673Z,1572.00
2019-04-05T10:26:49.672Z,1588.00
2019-04-05T10:27:49.670Z,1628.00
2019-04-05T10:28:49.653Z,1580.00
2019-04-05T10:29:49.776Z,1484.00
2019-04-05T10:30:51.926Z,1424.00
2019-04-05T10:31:49.643Z,1508.00
2019-04-05T10:32:49.590Z,1488.00
2019-04-05T10:33:49.592Z,1512.00
2019-04-05T10:34:49.579Z,1516.00
2019-04-05T10:35:49.563Z,1488.00
2019-04-05T10:36:49.550Z,1532.00
2019-04-05T10:37:49.539Z,1652.00
2019-04-05T10:38:49.524Z,1716.00
2019-04-05T10:39:49.519Z,1760.00
2019-04-05T10:40:49.504Z,1960.00
2019-04-05T10:42:02.373Z,2148.00
2019-04-05T10:42:50.481Z,2424.00
2019-04-05T10:43:49.473Z,2580.00
2019-04-05T10:44:49.457Z,2640.00
2019-04-05T10:45:49.451Z,2512.00
2019-04-05T10:46:49.429Z,2432.00
2019-04-05T10:47:49.424Z,2272.00
2019-04-05T10:48:49.409Z,2176.00
2019-04-05T10:50:01.700Z,2204.00
2019-04-05T10:50:50.388Z,2316.00
2019-04-05T10:51:49.377Z,2208.00
2019-04-05T10:52:49.367Z,2040.00
2019-04-05T10:53:49.359Z,2000.00
2019-04-05T10:54:49.346Z,1952.00
2019-04-05T10:55:49.334Z,1848.00
2019-04-05T10:56:49.324Z,1832.00
2019-04-05T10:57:49.312Z,1880.00
2019-04-05T10:58:49.299Z,1936.00
2019-04-05T10:59:49.284Z,1948.00
2019-04-05T11:00:49.273Z,1968.00
2019-04-05T11:01:49.271Z,2032.00
2019-04-05T11:02:49.258Z,2044.00
2019-04-05T11:03:49.241Z,2016.00
2019-04-05T11:04:49.231Z,2096.00
2019-04-05T11:05:49.586Z,2204.00
2019-04-05T11:06:49.204Z,2260.00
2019-04-05T11:07:49.195Z,2348.00
2019-04-05T11:08:49.180Z,2284.00
2019-04-05T11:09:49.176Z,2136.00
2019-04-05T11:10:49.159Z,2116.00
2019-04-05T11:11:49.170Z,2208.00
2019-04-05T11:12:50.020Z,2328.00
2019-04-05T11:13:49.133Z,2392.00
2019-04-05T11:14:49.113Z,2312.00
2019-04-05T11:15:49.117Z,2088.00
2019-04-05T11:16:58.439Z,2052.00
2019-04-05T11:17:50.086Z,2216.00
2019-04-05T11:18:49.093Z,2264.00
2019-04-05T11:19:49.072Z,2176.00
2019-04-05T11:20:49.774Z,2220.00
2019-04-05T11:21:52.176Z,2388.00
2019-04-05T11:22:50.159Z,2904.00
2019-04-05T11:23:49.097Z,2924.00
2019-04-05T11:24:49.010Z,2880.00
2019-04-05T11:25:49.023Z,2880.00
2019-04-05T11:26:48.977Z,3252.00
2019-04-05T11:27:48.969Z,3488.00
2019-04-05T11:28:48.957Z,3852.00
2019-04-05T11:29:48.952Z,4288.00
2019-04-05T11:30:48.944Z,4032.00
2019-04-05T11:31:57.086Z,3116.00
2019-04-05T11:32:49.917Z,2904.00
2019-04-05T11:33:48.907Z,2716.00
2019-04-05T11:34:48.908Z,2712.00
2019-04-05T11:35:48.890Z,2864.00
2019-04-05T11:36:48.891Z,2736.00
2019-04-05T11:37:50.660Z,2668.00
2019-04-05T11:38:50.800Z,2812.00
2019-04-05T11:39:48.845Z,2804.00
2019-04-05T11:40:48.829Z,2860.00
2019-04-05T11:41:48.831Z,3052.00
2019-04-05T11:42:48.816Z,3328.00
2019-04-05T11:43:48.848Z,3288.00
2019-04-05T11:44:48.790Z,3552.00
2019-04-05T11:45:50.852Z,3732.00
2019-04-05T11:46:49.376Z,3920.00
2019-04-05T11:47:48.758Z,3632.00
2019-04-05T11:48:48.739Z,3568.00
2019-04-05T11:49:48.726Z,3500.00
2019-04-05T11:50:48.715Z,3508.00
2019-04-05T11:51:48.709Z,3428.00
2019-04-05T11:52:48.708Z,3540.00
2019-04-05T11:53:48.699Z,4004.00
2019-04-05T11:54:48.665Z,3544.00
2019-04-05T11:55:48.660Z,3596.00
2019-04-05T11:56:48.656Z,3884.00
2019-04-05T11:57:48.642Z,4240.00
2019-04-05T11:58:48.999Z,3700.00
2019-04-05T11:59:49.229Z,4160.00
2019-04-05T12:00:48.620Z,4324.00
2019-04-05T12:01:48.627Z,3948.00
2019-04-05T12:02:48.596Z,3932.00
2019-04-05T12:03:48.577Z,4024.00
2019-04-05T12:04:48.562Z,4564.00
2019-04-05T12:05:48.546Z,4540.00
2019-04-05T12:06:51.836Z,4944.00
2019-04-05T12:07:48.529Z,4488.00
2019-04-05T12:08:48.532Z,5112.00
2019-04-05T12:09:48.665Z,4300.00
2019-04-05T12:10:48.503Z,4304.00
2019-04-05T12:11:48.486Z,4984.00
2019-04-05T12:12:48.491Z,4392.00
2019-04-05T12:13:48.465Z,3868.00
2019-04-05T12:14:48.459Z,3600.00
2019-04-05T12:15:48.446Z,4288.00
2019-04-05T12:16:48.440Z,4452.00
2019-04-05T12:17:48.419Z,3528.00
2019-04-05T12:18:48.405Z,3340.00
2019-04-05T12:19:48.394Z,3444.00
2019-04-05T12:20:57.836Z,3112.00
2019-04-05T12:21:49.372Z,3232.00
2019-04-05T12:22:48.373Z,3416.00
2019-04-05T12:23:48.350Z,3680.00
2019-04-05T12:24:48.397Z,3680.00
2019-04-05T12:25:48.334Z,3692.00
2019-04-05T12:26:48.315Z,3444.00
2019-04-05T12:27:48.309Z,3332.00
2019-04-05T12:28:48.299Z,3132.00
2019-04-05T12:29:48.292Z,3356.00
2019-04-05T12:30:48.276Z,4136.00
2019-04-05T12:31:48.271Z,3452.00
2019-04-05T12:32:48.824Z,3484.00
2019-04-05T12:33:51.341Z,4296.00
2019-04-05T12:34:49.451Z,4528.00
2019-04-05T12:35:51.666Z,5352.00
2019-04-05T12:36:48.204Z,5004.00
2019-04-05T12:37:50.647Z,3548.00